createdAt,value
2022-09-30T00:03:00.986Z,20.5
2022-09-30T00:08:39.102Z,20.5
2022-09-30T00:14:15.652Z,20.5
2022-09-30T00:19:37.713Z,20.5
2022-09-30T00:24:28.753Z,20.5
2022-09-30T00:30:05.048Z,20.5
2022-09-30T00:35:43.707Z,20.5
2022-09-30T00:41:19.812Z,20.5
2022-09-30T00:47:01.428Z,20.5
2022-09-30T00:52:24.140Z,20.5
2022-09-30T00:58:00.734Z,20.5
2022-09-30T01:03:37.325Z,20.6
2022-09-30T01:09:14.724Z,20.5
2022-09-30T01:14:55.314Z,20.5
2022-09-30T01:20:33.265Z,20.5
2022-09-30T01:26:00.912Z,20.6
2022-09-30T01:31:22.011Z,20.5
2022-09-30T01:36:43.700Z,20.5
2022-09-30T01:42:05.608Z,20.5
2022-09-30T01:47:42.501Z,20.5
2022-09-30T01:53:18.285Z,20.5
2022-09-30T01:58:56.316Z,20.5
2022-09-30T02:04:32.917Z,20.5
2022-09-30T02:10:10.523Z,20.5
2022-09-30T02:15:47.765Z,20.5
2022-09-30T02:21:24.843Z,20.5
2022-09-30T02:27:01.873Z,20.5
2022-09-30T02:32:39.718Z,20.5
2022-09-30T02:37:46.279Z,20.5
2022-09-30T02:43:07.504Z,20.5
2022-09-30T02:48:30.026Z,20.5
2022-09-30T02:53:50.722Z,20.4
2022-09-30T02:59:28.144Z,20.4
2022-09-30T03:05:12.526Z,20.5
2022-09-30T03:10:49.615Z,20.5
2022-09-30T03:16:14.003Z,20.5
2022-09-30T03:21:21.991Z,20.4
2022-09-30T03:26:43.187Z,20.4
2022-09-30T03:32:21.711Z,20.5
2022-09-30T03:37:59.404Z,20.5
2022-09-30T03:43:35.816Z,20.4
2022-09-30T03:49:12.117Z,20.4
2022-09-30T03:54:49.444Z,20.5
2022-09-30T04:00:26.270Z,20.5
2022-09-30T04:06:03.369Z,20.4
2022-09-30T04:11:41.517Z,20.4
2022-09-30T04:17:22.512Z,20.4
2022-09-30T04:22:43.785Z,20.4
2022-09-30T04:28:06.021Z,20.5
2022-09-30T04:33:47.269Z,20.4
2022-09-30T04:39:25.061Z,20.4
2022-09-30T04:44:47.764Z,20.5
2022-09-30T04:50:30.136Z,20.4
2022-09-30T04:55:51.943Z,20.5
2022-09-30T05:01:15.229Z,20.5
2022-09-30T05:06:53.107Z,20.5
2022-09-30T05:12:35.650Z,20.5
2022-09-30T05:18:13.057Z,20.5
2022-09-30T05:23:55.158Z,20.5
2022-09-30T05:29:32.616Z,20.4
2022-09-30T05:35:11.143Z,20.5
2022-09-30T05:40:48.721Z,20.5
2022-09-30T05:46:26.077Z,20.5
2022-09-30T05:52:09.517Z,20.4
2022-09-30T05:57:52.651Z,20.5
2022-09-30T06:03:39.423Z,20.5
2022-09-30T06:09:24.010Z,20.5
2022-09-30T06:15:01.839Z,20.4
2022-09-30T06:20:39.809Z,20.4
2022-09-30T06:26:19.503Z,20.5
2022-09-30T06:31:58.656Z,20.5
2022-09-30T06:37:36.861Z,20.5
2022-09-30T06:43:14.425Z,20.5
2022-09-30T06:50:44.690Z,20.5
2022-09-30T06:56:23.704Z,20.5
2022-09-30T07:02:02.539Z,20.5
2022-09-30T07:07:42.597Z,20.5
2022-09-30T07:13:19.677Z,20.6
2022-09-30T07:18:58.448Z,20.6
2022-09-30T07:24:35.908Z,20.5
2022-09-30T07:30:43.866Z,20.5
2022-09-30T07:36:50.780Z,20.5
2022-09-30T07:42:28.895Z,20.5
2022-09-30T07:48:10.105Z,20.5
2022-09-30T07:53:48.322Z,20.6
2022-09-30T07:59:58.205Z,20.4
2022-09-30T08:06:07.237Z,20.4
2022-09-30T08:11:45.606Z,20.4
2022-09-30T08:17:25.570Z,20.5
2022-09-30T08:23:09.758Z,20.4
2022-09-30T08:28:48.227Z,20.5
2022-09-30T08:34:56.394Z,20.6
2022-09-30T08:40:35.879Z,20.5
2022-09-30T08:46:34.989Z,20.5
2022-09-30T08:52:30.075Z,20.6
2022-09-30T08:58:20.397Z,20.6
2022-09-30T09:03:59.118Z,20.6
2022-09-30T09:09:41.253Z,20.6
2022-09-30T09:15:19.095Z,20.6
2022-09-30T09:21:07.144Z,20.7
2022-09-30T09:26:50.209Z,20.6
2022-09-30T09:32:13.800Z,20.7
2022-09-30T09:37:39.584Z,20.7
2022-09-30T09:43:23.890Z,20.8
2022-09-30T09:49:04.588Z,20.8
2022-09-30T09:54:27.724Z,20.8
2022-09-30T10:00:10.170Z,20.8
2022-09-30T10:05:52.186Z,20.8
2022-09-30T10:11:14.905Z,20.8
2022-09-30T10:16:52.232Z,20.8
2022-09-30T10:22:15.047Z,20.9
2022-09-30T10:27:56.348Z,20.9
2022-09-30T10:33:39.777Z,20.9
2022-09-30T10:39:22.330Z,20.9
2022-09-30T10:45:01.202Z,20.9
2022-09-30T10:50:56.429Z,21
2022-09-30T10:56:24.969Z,20.9
2022-09-30T11:01:49.778Z,20.9
2022-09-30T11:07:17.774Z,21
2022-09-30T11:18:03.129Z,21.1
2022-09-30T11:23:40.422Z,21.1
2022-09-30T11:34:30.721Z,21.1
2022-09-30T11:40:08.437Z,21.1
2022-09-30T11:45:45.560Z,21.1
2022-09-30T11:56:45.811Z,21.2
2022-09-30T12:08:11.922Z,21.1
2022-09-30T12:19:03.345Z,21.2
2022-09-30T12:24:31.287Z,21.2
2022-09-30T12:30:10.934Z,21.3
2022-09-30T12:35:48.498Z,21.2
2022-09-30T12:41:27.055Z,21.2
2022-09-30T12:47:04.804Z,21.2
2022-09-30T12:52:43.102Z,21.2
2022-09-30T12:58:21.083Z,21.2
2022-09-30T13:03:59.297Z,21.2
2022-09-30T13:09:39.194Z,21.3
2022-09-30T13:20:41.126Z,21.2
2022-09-30T13:26:07.942Z,21.3
2022-09-30T13:31:46.883Z,21.3
2022-09-30T13:37:24.749Z,21.3
2022-09-30T13:43:27.531Z,21.3
2022-09-30T13:48:52.231Z,21.3
2022-09-30T13:53:58.573Z,21.4
2022-09-30T13:59:36.304Z,21.3
2022-09-30T14:05:14.768Z,21.4
2022-09-30T14:10:58.265Z,21.5
2022-09-30T14:16:36.920Z,21.4
2022-09-30T14:22:16.222Z,21.4
2022-09-30T14:27:58.204Z,21.4
2022-09-30T14:33:37.951Z,21.4
2022-09-30T14:40:45.144Z,21.4
2022-09-30T14:46:29.300Z,21.4
2022-09-30T14:52:12.846Z,21.4
2022-09-30T14:57:51.255Z,21.4
2022-09-30T15:03:29.312Z,21.5
2022-09-30T15:09:09.957Z,21.4
2022-09-30T15:14:47.900Z,21.6
2022-09-30T15:20:25.981Z,21.5
2022-09-30T15:26:03.561Z,21.6
2022-09-30T15:31:42.263Z,21.6
2022-09-30T15:37:25.111Z,21.6
2022-09-30T15:43:07.003Z,21.6
2022-09-30T15:48:46.220Z,21.6
2022-09-30T15:54:27.988Z,21.4
2022-09-30T16:00:06.328Z,21.6
2022-09-30T16:05:44.554Z,21.5
2022-09-30T16:11:25.136Z,21.6
2022-09-30T16:17:05.317Z,21.6
2022-09-30T16:22:44.323Z,21.7
2022-09-30T16:28:21.496Z,21.6
2022-09-30T16:34:00.916Z,21.7
2022-09-30T16:39:38.835Z,21.6
2022-09-30T16:45:21.014Z,21.6
2022-09-30T16:51:03.441Z,21.6
2022-09-30T16:56:26.231Z,21.7
2022-09-30T17:02:03.725Z,21.7
2022-09-30T17:07:26.133Z,21.7
2022-09-30T17:13:03.993Z,21.6
2022-09-30T17:18:26.034Z,21.6
2022-09-30T17:24:03.598Z,21.6
2022-09-30T17:29:48.379Z,21.6
2022-09-30T17:35:26.334Z,21.7
2022-09-30T17:41:05.554Z,21.6
2022-09-30T17:46:16.676Z,21.6
2022-09-30T17:51:54.615Z,21.7
2022-09-30T17:57:36.626Z,21.7
2022-09-30T18:03:00.491Z,21.7
2022-09-30T18:08:38.611Z,21.7
2022-09-30T18:14:16.809Z,21.6
2022-09-30T18:19:55.679Z,21.6
2022-09-30T18:25:17.781Z,21.6
2022-09-30T18:30:44.270Z,21.6
2022-09-30T18:36:07.953Z,21.6
2022-09-30T18:41:30.886Z,21.6
2022-09-30T18:46:54.405Z,21.6
2022-09-30T18:52:32.477Z,21.6
2022-09-30T18:58:10.062Z,21.6
2022-09-30T19:03:51.437Z,21.7
2022-09-30T19:09:29.484Z,21.6
2022-09-30T19:15:06.986Z,21.6
2022-09-30T19:20:48.048Z,21.6
2022-09-30T19:26:25.769Z,21.6
2022-09-30T19:32:04.495Z,21.6
2022-09-30T19:39:30.209Z,21.6
2022-09-30T19:45:25.611Z,21.6
2022-09-30T19:51:09.832Z,21.6
2022-09-30T19:57:58.846Z,21.6
2022-09-30T20:03:27.152Z,21.6
2022-09-30T20:08:50.081Z,21.6
2022-09-30T20:14:27.529Z,21.6
2022-09-30T20:19:56.703Z,21.6
2022-09-30T20:25:34.493Z,21.6
2022-09-30T20:30:57.224Z,21.6
2022-09-30T20:36:36.927Z,21.6
2022-09-30T20:42:14.804Z,21.6
2022-09-30T20:47:52.585Z,21.6
2022-09-30T20:53:33.955Z,21.6
2022-09-30T20:59:36.283Z,21.6
2022-09-30T21:05:14.607Z,21.6
2022-09-30T21:10:52.615Z,21.6
2022-09-30T21:16:15.593Z,21.6
2022-09-30T21:21:53.555Z,21.6
2022-09-30T21:27:15.877Z,21.5
2022-09-30T21:32:43.701Z,21.6
2022-09-30T21:38:05.884Z,21.6
2022-09-30T21:43:44.638Z,21.6
2022-09-30T21:49:06.080Z,21.6
2022-09-30T21:54:47.987Z,21.5
2022-09-30T22:00:25.997Z,21.6
2022-09-30T22:05:48.853Z,21.6
2022-09-30T22:11:26.373Z,21.5
2022-09-30T22:17:04.632Z,21.5
2022-09-30T22:22:42.706Z,21.6
2022-09-30T22:28:19.364Z,21.5
2022-09-30T22:33:57.592Z,21.6
2022-09-30T22:39:19.308Z,21.6
2022-09-30T22:44:59.495Z,21.6
2022-09-30T22:50:21.708Z,21.5
2022-09-30T22:55:43.675Z,21.5
2022-09-30T23:01:04.680Z,21.6
2022-09-30T23:06:27.144Z,21.5
2022-09-30T23:12:04.869Z,21.4
2022-09-30T23:17:42.055Z,21.4
2022-09-30T23:23:19.454Z,21.5
2022-09-30T23:28:56.671Z,21.4
2022-09-30T23:34:34.080Z,21.5
2022-09-30T23:39:41.087Z,21.4
2022-09-30T23:45:18.677Z,21.4
2022-09-30T23:50:56.377Z,21.4
2022-09-30T23:56:37.711Z,21.4
